P/v Golden Gate — WDE5665 — position and weather

sailwx.info

Track history (hours):
 
Tides and Currents Weather Stations Pressure Air Temp Water Temp Dewpoint Dewpoint Depression Visibility Wind Speed Wind Dir Waves Ship Positions

P/v Golden Gate

Owner: San Francisco Bar Pilots Benevolent and Protective, San Francisco, CA. More information available from US FCC via Universal Licensing System and Coast Guard Vessel Documentation Center.

Last reported at 2017-Jul-26 10:30 UTC. Time now 2017-Jul-26 10:35 UTC.
Position N 37°48' W 122°24'.

Length 21 m.

Type: Pilot. MMSI: 367370010.

Date/timePositionNaut miles runAvg speedWind from/ knotsBaromVisibWave heightAir tempDewpointWater temp
2017-Jul-26 10:30N 37°48' W 122°24'0 0.0
2017-Jul-26 10:00N 37°48' W 122°24'3 6.6
2017-Jul-26 09:30N 37°49' W 122°28'610.5
2017-Jul-26 08:56N 37°47' W 122°35'820.2
2017-Jul-26 08:30N 37°49' W 122°25'1 2.3
2017-Jul-26 08:00N 37°48' W 122°24'3 5.4
2017-Jul-26 07:30N 37°51' W 122°25'3 5.3
2017-Jul-26 07:00N 37°48' W 122°24'0 0.0
2017-Jul-26 06:31N 37°48' W 122°24'1 2.8
2017-Jul-26 06:00N 37°48' W 122°22'1 1.8
2017-Jul-26 05:30N 37°48' W 122°23'3 5.9
2017-Jul-26 05:00N 37°49' W 122°27'2 5.0
2017-Jul-26 04:31N 37°48' W 122°24'0 0.0
2017-Jul-26 04:00N 37°48' W 122°24'0 0.0
2017-Jul-26 03:30N 37°48' W 122°24'0 0.0
2017-Jul-26 03:00N 37°48' W 122°24'0 0.0
2017-Jul-26 02:30N 37°48' W 122°24'0 0.0
2017-Jul-26 02:00N 37°48' W 122°24'0 0.0
2017-Jul-26 01:30N 37°48' W 122°24'0 0.0
2017-Jul-26 01:00N 37°48' W 122°24'2 4.3
2017-Jul-26 00:30N 37°48' W 122°21'2 3.0
2017-Jul-26 00:00N 37°48' W 122°19'3 5.9
2017-Jul-25 23:31N 37°49' W 122°23'713.5
2017-Jul-25 23:01N 37°48' W 122°31'918.6
2017-Jul-25 22:30N 37°49' W 122°19'0 0.0
2017-Jul-25 22:00N 37°49' W 122°19'4 7.1
2017-Jul-25 21:31N 37°49' W 122°24'1 1.4
2017-Jul-25 21:00N 37°48' W 122°24'0 0.0
2017-Jul-25 20:30N 37°48' W 122°24'3 6.8
2017-Jul-25 20:01N 37°48' W 122°20'713.2
2017-Jul-25 19:31N 37°50' W 122°27'2 3.8
2017-Jul-25 19:01N 37°49' W 122°29'4 7.9
2017-Jul-25 18:30N 37°48' W 122°24'0 0.0
2017-Jul-25 18:00N 37°48' W 122°24'0 0.0
2017-Jul-25 17:30N 37°48' W 122°24'0 0.0
2017-Jul-25 17:00N 37°48' W 122°24'0 0.0
2017-Jul-25 16:30N 37°48' W 122°24'0 0.0
2017-Jul-25 16:00N 37°48' W 122°24'0 0.0
2017-Jul-25 15:30N 37°48' W 122°24'0 0.0
2017-Jul-25 15:00N 37°48' W 122°24'0 0.0
2017-Jul-25 14:00N 37°48' W 122°24'0 0.0
2017-Jul-25 13:30N 37°48' W 122°24'0 0.0
2017-Jul-25 13:00N 37°48' W 122°24'0 0.0
2017-Jul-25 12:30N 37°48' W 122°24'0 0.0
2017-Jul-25 12:00N 37°48' W 122°24'0 0.0
2017-Jul-25 11:30N 37°48' W 122°24'0 0.0
2017-Jul-25 11:00N 37°48' W 122°24'0 0.0
2017-Jul-25 10:30N 37°48' W 122°24'0 0.0
2017-Jul-25 10:00N 37°48' W 122°24'0 0.0
2017-Jul-25 09:30N 37°48' W 122°24'0 0.0
2017-Jul-25 09:00N 37°48' W 122°24'0 0.0
2017-Jul-25 08:30N 37°48' W 122°24'0 0.0
2017-Jul-25 08:00N 37°48' W 122°24'0 0.0
2017-Jul-25 07:30N 37°48' W 122°24'0 0.0
2017-Jul-25 07:00N 37°48' W 122°24'0 0.0
2017-Jul-25 06:30N 37°48' W 122°24'0 0.0
2017-Jul-25 06:00N 37°48' W 122°24'0 0.0
2017-Jul-25 05:30N 37°48' W 122°24'0 0.0
2017-Jul-25 05:00N 37°48' W 122°24'0 0.0
2017-Jul-25 04:30N 37°48' W 122°24'0 0.0
2017-Jul-25 04:00N 37°48' W 122°24'0 0.0
2017-Jul-25 03:30N 37°48' W 122°24'0 0.0
2017-Jul-25 03:00N 37°48' W 122°24'0 0.0
2017-Jul-25 02:30N 37°48' W 122°24'0 0.0
2017-Jul-25 02:00N 37°48' W 122°24'0 0.0
2017-Jul-25 01:30N 37°48' W 122°24'0 0.0
2017-Jul-25 01:00N 37°48' W 122°24'0 0.0
2017-Jul-25 00:30N 37°48' W 122°24'0 0.0
2017-Jul-25 00:00N 37°48' W 122°24'5 9.4
2017-Jul-24 23:30N 37°48' W 122°18'0 0.8
2017-Jul-24 23:00N 37°47' W 122°17'0 0.0
2017-Jul-24 21:31N 37°47' W 122°17'0 0.0
2017-Jul-24 21:30N 37°47' W 122°17'0 0.0
2017-Jul-24 21:00N 37°47' W 122°17'0 0.0
2017-Jul-24 20:30N 37°47' W 122°17'0 0.0
2017-Jul-24 20:00N 37°47' W 122°17'0 0.0
2017-Jul-24 19:30N 37°47' W 122°17'0 0.0
2017-Jul-24 19:00N 37°47' W 122°17'0 0.0
2017-Jul-24 18:30N 37°47' W 122°17'0 0.0
2017-Jul-24 18:00N 37°47' W 122°17'0 0.0
2017-Jul-24 17:30N 37°47' W 122°17'0 0.0
2017-Jul-24 17:00N 37°47' W 122°17'  
Track history (hours):
 
Tides and Currents Weather Stations Pressure Air Temp Water Temp Dewpoint Dewpoint Depression Visibility Wind Speed Wind Dir Waves Ship Positions

P/v Golden Gate

Owner: San Francisco Bar Pilots Benevolent and Protective, San Francisco, CA. More information available from US FCC via Universal Licensing System and Coast Guard Vessel Documentation Center.

Last reported at 2017-Jul-26 10:30 UTC. Time now 2017-Jul-26 10:35 UTC.
Position N 37°48' W 122°24'.

Length 21 m.

Type: Pilot. MMSI: 367370010.

Date/timePositionNaut miles runAvg speedWind from/ knotsBaromVisibWave heightAir tempDewpointWater temp
2017-Jul-26 10:30N 37°48' W 122°24'0 0.0
2017-Jul-26 10:00N 37°48' W 122°24'3 6.6
2017-Jul-26 09:30N 37°49' W 122°28'610.5
2017-Jul-26 08:56N 37°47' W 122°35'820.2
2017-Jul-26 08:30N 37°49' W 122°25'1 2.3
2017-Jul-26 08:00N 37°48' W 122°24'3 5.4
2017-Jul-26 07:30N 37°51' W 122°25'3 5.3
2017-Jul-26 07:00N 37°48' W 122°24'0 0.0
2017-Jul-26 06:31N 37°48' W 122°24'1 2.8
2017-Jul-26 06:00N 37°48' W 122°22'1 1.8
2017-Jul-26 05:30N 37°48' W 122°23'3 5.9
2017-Jul-26 05:00N 37°49' W 122°27'2 5.0
2017-Jul-26 04:31N 37°48' W 122°24'0 0.0
2017-Jul-26 04:00N 37°48' W 122°24'0 0.0
2017-Jul-26 03:30N 37°48' W 122°24'0 0.0
2017-Jul-26 03:00N 37°48' W 122°24'0 0.0
2017-Jul-26 02:30N 37°48' W 122°24'0 0.0
2017-Jul-26 02:00N 37°48' W 122°24'0 0.0
2017-Jul-26 01:30N 37°48' W 122°24'0 0.0
2017-Jul-26 01:00N 37°48' W 122°24'2 4.3
2017-Jul-26 00:30N 37°48' W 122°21'2 3.0
2017-Jul-26 00:00N 37°48' W 122°19'3 5.9
2017-Jul-25 23:31N 37°49' W 122°23'713.5
2017-Jul-25 23:01N 37°48' W 122°31'918.6
2017-Jul-25 22:30N 37°49' W 122°19'0 0.0
2017-Jul-25 22:00N 37°49' W 122°19'4 7.1
2017-Jul-25 21:31N 37°49' W 122°24'1 1.4
2017-Jul-25 21:00N 37°48' W 122°24'0 0.0
2017-Jul-25 20:30N 37°48' W 122°24'3 6.8
2017-Jul-25 20:01N 37°48' W 122°20'713.2
2017-Jul-25 19:31N 37°50' W 122°27'2 3.8
2017-Jul-25 19:01N 37°49' W 122°29'4 7.9
2017-Jul-25 18:30N 37°48' W 122°24'0 0.0
2017-Jul-25 18:00N 37°48' W 122°24'0 0.0
2017-Jul-25 17:30N 37°48' W 122°24'0 0.0
2017-Jul-25 17:00N 37°48' W 122°24'0 0.0
2017-Jul-25 16:30N 37°48' W 122°24'0 0.0
2017-Jul-25 16:00N 37°48' W 122°24'0 0.0
2017-Jul-25 15:30N 37°48' W 122°24'0 0.0
2017-Jul-25 15:00N 37°48' W 122°24'0 0.0
2017-Jul-25 14:00N 37°48' W 122°24'0 0.0
2017-Jul-25 13:30N 37°48' W 122°24'0 0.0
2017-Jul-25 13:00N 37°48' W 122°24'0 0.0
2017-Jul-25 12:30N 37°48' W 122°24'0 0.0
2017-Jul-25 12:00N 37°48' W 122°24'0 0.0
2017-Jul-25 11:30N 37°48' W 122°24'0 0.0
2017-Jul-25 11:00N 37°48' W 122°24'0 0.0
2017-Jul-25 10:30N 37°48' W 122°24'0 0.0
2017-Jul-25 10:00N 37°48' W 122°24'0 0.0
2017-Jul-25 09:30N 37°48' W 122°24'0 0.0
2017-Jul-25 09:00N 37°48' W 122°24'0 0.0
2017-Jul-25 08:30N 37°48' W 122°24'0 0.0
2017-Jul-25 08:00N 37°48' W 122°24'0 0.0
2017-Jul-25 07:30N 37°48' W 122°24'0 0.0
2017-Jul-25 07:00N 37°48' W 122°24'0 0.0
2017-Jul-25 06:30N 37°48' W 122°24'0 0.0
2017-Jul-25 06:00N 37°48' W 122°24'0 0.0
2017-Jul-25 05:30N 37°48' W 122°24'0 0.0
2017-Jul-25 05:00N 37°48' W 122°24'0 0.0
2017-Jul-25 04:30N 37°48' W 122°24'0 0.0
2017-Jul-25 04:00N 37°48' W 122°24'0 0.0
2017-Jul-25 03:30N 37°48' W 122°24'0 0.0
2017-Jul-25 03:00N 37°48' W 122°24'0 0.0
2017-Jul-25 02:30N 37°48' W 122°24'0 0.0
2017-Jul-25 02:00N 37°48' W 122°24'0 0.0
2017-Jul-25 01:30N 37°48' W 122°24'0 0.0
2017-Jul-25 01:00N 37°48' W 122°24'0 0.0
2017-Jul-25 00:30N 37°48' W 122°24'0 0.0
2017-Jul-25 00:00N 37°48' W 122°24'5 9.4
2017-Jul-24 23:30N 37°48' W 122°18'0 0.8
2017-Jul-24 23:00N 37°47' W 122°17'0 0.0
2017-Jul-24 21:31N 37°47' W 122°17'0 0.0
2017-Jul-24 21:30N 37°47' W 122°17'0 0.0
2017-Jul-24 21:00N 37°47' W 122°17'0 0.0
2017-Jul-24 20:30N 37°47' W 122°17'0 0.0
2017-Jul-24 20:00N 37°47' W 122°17'0 0.0
2017-Jul-24 19:30N 37°47' W 122°17'0 0.0
2017-Jul-24 19:00N 37°47' W 122°17'0 0.0
2017-Jul-24 18:30N 37°47' W 122°17'0 0.0
2017-Jul-24 18:00N 37°47' W 122°17'0 0.0
2017-Jul-24 17:30N 37°47' W 122°17'0 0.0
2017-Jul-24 17:00N 37°47' W 122°17'  

Dump ship's entire track history